createdAt,value
2023-02-27T00:00:37.472Z,-4.86
2023-02-27T00:03:04.617Z,-5.01
2023-02-27T00:05:31.754Z,-5.17
2023-02-27T00:07:58.991Z,-5.22
2023-02-27T00:10:26.127Z,-5.14
2023-02-27T00:12:53.427Z,-5.18
2023-02-27T00:15:20.806Z,-5.09
2023-02-27T00:17:48.160Z,-5.10
2023-02-27T00:20:16.336Z,-5.10
2023-02-27T00:22:44.446Z,-5.09
2023-02-27T00:25:12.204Z,-5.02
2023-02-27T00:27:39.886Z,-5.05
2023-02-27T00:30:08.108Z,-5.04
2023-02-27T00:32:36.836Z,-5.00
2023-02-27T00:35:05.091Z,-4.93
2023-02-27T00:37:32.915Z,-4.90
2023-02-27T00:40:01.083Z,-4.88
2023-02-27T00:42:28.751Z,-4.89
2023-02-27T00:44:56.008Z,-4.90
2023-02-27T00:47:23.076Z,-4.91
2023-02-27T00:49:50.235Z,-4.88
2023-02-27T00:52:17.271Z,-4.89
2023-02-27T00:54:44.622Z,-4.93
2023-02-27T00:57:11.762Z,-4.93
2023-02-27T00:59:41.203Z,-5.01
2023-02-27T01:02:08.401Z,-4.97
2023-02-27T01:04:35.554Z,-4.98
2023-02-27T01:07:02.815Z,-5.01
2023-02-27T01:09:30.322Z,-5.01
2023-02-27T01:11:57.771Z,-4.97
2023-02-27T01:14:25.314Z,-5.02
2023-02-27T01:16:52.713Z,-5.07
2023-02-27T01:19:19.937Z,-4.95
2023-02-27T01:21:47.079Z,-4.99
2023-02-27T01:24:14.179Z,-5.02
2023-02-27T01:26:41.373Z,-5.02
2023-02-27T01:29:10.116Z,-5.13
2023-02-27T01:31:39.375Z,-5.15
2023-02-27T01:34:06.656Z,-5.22
2023-02-27T01:36:33.753Z,-5.13
2023-02-27T01:39:00.870Z,-5.10
2023-02-27T01:41:29.201Z,-5.10
2023-02-27T01:43:59.555Z,-5.00
2023-02-27T01:46:27.540Z,-5.01
2023-02-27T01:49:00.738Z,-4.96
2023-02-27T01:51:31.966Z,-4.95
2023-02-27T01:54:02.853Z,-4.98
2023-02-27T01:56:31.229Z,-5.03
2023-02-27T01:59:00.357Z,-5.05
2023-02-27T02:01:27.995Z,-5.07
2023-02-27T02:04:00.313Z,-5.14
2023-02-27T02:06:34.415Z,-5.18
2023-02-27T02:09:02.482Z,-5.21
2023-02-27T02:11:29.702Z,-5.28
2023-02-27T02:13:59.209Z,-5.28
2023-02-27T02:16:29.582Z,-5.23
2023-02-27T02:18:59.608Z,-5.35
2023-02-27T02:21:37.445Z,-5.34
2023-02-27T02:24:04.592Z,-5.25
2023-02-27T02:26:52.076Z,-5.21
2023-02-27T02:29:32.645Z,-5.21
2023-02-27T02:32:11.882Z,-5.26
2023-02-27T02:34:40.220Z,-5.30
2023-02-27T02:37:22.606Z,-5.34
2023-02-27T02:40:19.184Z,-5.43
2023-02-27T02:42:49.756Z,-5.36
2023-02-27T02:45:35.617Z,-5.36
2023-02-27T02:48:04.816Z,-5.30
2023-02-27T02:50:50.858Z,-5.24
2023-02-27T02:53:37.721Z,-5.18
2023-02-27T02:56:10.245Z,-5.10
2023-02-27T02:58:46.381Z,-5.04
2023-02-27T03:01:26.699Z,-5.00
2023-02-27T03:04:17.596Z,-5.03
2023-02-27T03:06:52.624Z,-5.03
2023-02-27T03:09:20.560Z,-5.06
2023-02-27T03:11:49.659Z,-5.08
2023-02-27T03:14:31.720Z,-5.09
2023-02-27T03:17:02.433Z,-5.10
2023-02-27T03:19:53.503Z,-5.14
2023-02-27T03:22:24.228Z,-5.20
2023-02-27T03:24:53.443Z,-5.18
2023-02-27T03:27:22.038Z,-5.17
2023-02-27T03:29:56.814Z,-5.17
2023-02-27T03:32:43.184Z,-5.11
2023-02-27T03:35:11.223Z,-5.04
2023-02-27T03:37:45.335Z,-5.01
2023-02-27T03:40:37.618Z,-4.97
2023-02-27T03:43:12.625Z,-4.86
2023-02-27T03:45:55.438Z,-4.89
2023-02-27T03:48:22.860Z,-4.92
2023-02-27T03:50:50.148Z,-4.88
2023-02-27T03:53:28.463Z,-4.94
2023-02-27T03:55:57.494Z,-4.94
2023-02-27T03:58:25.005Z,-4.92
2023-02-27T04:00:52.162Z,-4.99
2023-02-27T04:03:19.307Z,-5.05
2023-02-27T04:05:46.653Z,-5.00
2023-02-27T04:08:29.552Z,-4.98
2023-02-27T04:10:56.747Z,-4.95
2023-02-27T04:13:35.267Z,-4.94
2023-02-27T04:16:05.565Z,-4.88
2023-02-27T04:18:40.847Z,-4.91
2023-02-27T04:21:07.905Z,-4.85
2023-02-27T04:23:35.000Z,-4.91
2023-02-27T04:26:19.808Z,-4.94
2023-02-27T04:28:50.042Z,-4.94
2023-02-27T04:31:29.374Z,-4.93
2023-02-27T04:34:03.020Z,-4.87
2023-02-27T04:36:33.152Z,-4.86
2023-02-27T04:39:10.882Z,-4.83
2023-02-27T04:41:46.478Z,-4.84
2023-02-27T04:44:14.548Z,-4.85
2023-02-27T04:46:43.136Z,-4.89
2023-02-27T04:49:15.966Z,-4.89
2023-02-27T04:51:47.176Z,-4.87
2023-02-27T04:54:17.496Z,-4.82
2023-02-27T04:56:49.622Z,-4.73
2023-02-27T04:59:19.471Z,-4.68
2023-02-27T05:01:59.494Z,-4.63
2023-02-27T05:04:29.900Z,-4.45
2023-02-27T05:06:58.826Z,-4.47
2023-02-27T05:09:32.842Z,-4.50
2023-02-27T05:12:03.090Z,-4.50
2023-02-27T05:14:30.425Z,-4.48
2023-02-27T05:17:09.275Z,-4.46
2023-02-27T05:19:39.266Z,-4.49
2023-02-27T05:22:06.407Z,-4.55
2023-02-27T05:24:44.355Z,-4.56
2023-02-27T05:27:34.933Z,-4.51
2023-02-27T05:30:06.025Z,-4.47
2023-02-27T05:32:53.801Z,-4.51
2023-02-27T05:35:31.667Z,-4.49
2023-02-27T05:38:04.091Z,-4.57
2023-02-27T05:40:33.324Z,-4.53
2023-02-27T05:43:04.639Z,-4.58
2023-02-27T05:45:34.720Z,-4.71
2023-02-27T05:48:04.809Z,-4.69
2023-02-27T05:50:34.038Z,-4.73
2023-02-27T05:53:03.350Z,-4.68
2023-02-27T05:55:34.245Z,-4.75
2023-02-27T05:58:13.056Z,-4.82
2023-02-27T06:00:46.385Z,-4.82
2023-02-27T06:03:14.042Z,-4.82
2023-02-27T06:05:42.669Z,-4.80
2023-02-27T06:08:10.427Z,-4.77
2023-02-27T06:10:38.120Z,-4.73
2023-02-27T06:13:05.246Z,-4.68
2023-02-27T06:15:32.339Z,-4.65
2023-02-27T06:17:59.451Z,-4.66
2023-02-27T06:20:26.756Z,-4.50
2023-02-27T06:22:53.933Z,-4.23
2023-02-27T06:25:22.157Z,-4.05
2023-02-27T06:27:49.422Z,-4.05
2023-02-27T06:30:16.787Z,-4.02
2023-02-27T06:32:43.902Z,-4.00
2023-02-27T06:35:11.383Z,-4.04
2023-02-27T06:37:38.707Z,-3.92
2023-02-27T06:40:08.326Z,-3.86
2023-02-27T06:42:35.436Z,-3.87
2023-02-27T06:45:02.512Z,-3.78
2023-02-27T06:47:29.639Z,-3.76
2023-02-27T06:49:56.738Z,-3.84
2023-02-27T06:52:23.940Z,-3.89
2023-02-27T06:54:50.994Z,-3.94
2023-02-27T06:57:18.034Z,-4.07
2023-02-27T06:59:45.367Z,-4.13
2023-02-27T07:02:13.671Z,-4.14
2023-02-27T07:04:40.911Z,-4.07
2023-02-27T07:07:34.860Z,-4.06
2023-02-27T07:09:55.439Z,-4.02
2023-02-27T07:12:22.608Z,-3.96
2023-02-27T07:14:49.686Z,-3.85
2023-02-27T07:17:17.013Z,-3.74
2023-02-27T07:19:44.167Z,-3.67
2023-02-27T07:22:11.313Z,-3.65
2023-02-27T07:24:38.450Z,-3.49
2023-02-27T07:27:05.591Z,-3.44
2023-02-27T07:29:32.748Z,-3.29
2023-02-27T07:32:01.613Z,-3.27
2023-02-27T07:34:29.365Z,-3.19
2023-02-27T07:36:56.524Z,-3.22
2023-02-27T07:39:23.794Z,-3.21
2023-02-27T07:41:50.982Z,-3.17
2023-02-27T07:44:18.267Z,-3.14
2023-02-27T07:46:47.555Z,-3.15
2023-02-27T07:49:14.690Z,-3.15
2023-02-27T07:51:41.817Z,-3.09
2023-02-27T07:54:08.988Z,-3.05
2023-02-27T07:56:39.305Z,-2.94
2023-02-27T07:59:06.694Z,-2.81
2023-02-27T08:01:33.813Z,-2.73
2023-02-27T08:04:00.897Z,-2.39
2023-02-27T08:06:28.461Z,-2.13
2023-02-27T08:08:55.811Z,-2.00
2023-02-27T08:11:22.914Z,-2.01
2023-02-27T08:14:05.656Z,-2.00
2023-02-27T08:16:33.659Z,-2.06
2023-02-27T08:19:01.123Z,-2.10
2023-02-27T08:21:28.930Z,-2.01
2023-02-27T08:23:56.288Z,-2.00
2023-02-27T08:26:23.727Z,-1.86
2023-02-27T08:28:51.355Z,-1.74
2023-02-27T08:31:18.511Z,-1.75
2023-02-27T08:33:45.642Z,-1.67
2023-02-27T08:36:12.840Z,-1.50
2023-02-27T08:38:40.008Z,-1.47
2023-02-27T08:41:07.196Z,-1.47
2023-02-27T08:43:34.339Z,-1.37
2023-02-27T08:46:01.522Z,-1.38
2023-02-27T08:48:28.952Z,-1.25
2023-02-27T08:50:57.840Z,-1.25
2023-02-27T08:53:25.325Z,-1.09
2023-02-27T08:55:53.430Z,-0.82
2023-02-27T08:58:20.763Z,-0.40
2023-02-27T09:00:47.880Z,-0.07
2023-02-27T09:03:15.188Z,0.27
2023-02-27T09:05:42.800Z,0.44
2023-02-27T09:08:10.370Z,0.32
2023-02-27T09:10:37.816Z,0.32
2023-02-27T09:13:04.945Z,0.22
2023-02-27T09:15:34.603Z,0.23
2023-02-27T09:18:03.361Z,0.03
2023-02-27T09:20:31.828Z,-0.06
2023-02-27T09:22:59.843Z,-0.22
2023-02-27T09:25:28.294Z,-0.39
2023-02-27T09:27:55.915Z,-0.53
2023-02-27T09:30:23.536Z,-0.48
2023-02-27T09:32:51.145Z,-0.39
2023-02-27T09:35:20.583Z,-0.26
2023-02-27T09:37:49.708Z,-0.26
2023-02-27T09:40:20.109Z,-0.33
2023-02-27T09:42:48.717Z,-0.43
2023-02-27T09:45:24.562Z,-0.45
2023-02-27T09:47:54.203Z,-0.39
2023-02-27T09:50:34.056Z,-0.36
2023-02-27T09:53:01.421Z,-0.32
2023-02-27T09:55:31.640Z,-0.34
2023-02-27T09:58:04.554Z,-0.46
2023-02-27T10:00:34.755Z,-0.38
2023-02-27T10:03:21.128Z,-0.46
2023-02-27T10:06:11.631Z,-0.64
2023-02-27T10:08:56.234Z,-0.46
2023-02-27T10:11:33.225Z,-0.31
2023-02-27T10:14:06.680Z,-0.29
2023-02-27T10:16:34.303Z,-0.42
2023-02-27T10:19:03.302Z,-0.52
2023-02-27T10:21:50.710Z,-0.64
2023-02-27T10:24:29.945Z,-0.65
2023-02-27T10:26:58.544Z,-0.71
2023-02-27T10:29:29.562Z,-0.63
2023-02-27T10:32:02.620Z,-0.65
2023-02-27T10:34:31.080Z,-0.68
2023-02-27T10:37:03.808Z,-0.66
2023-02-27T10:39:32.355Z,-0.61
2023-02-27T10:42:03.177Z,-0.62
2023-02-27T10:44:31.674Z,-0.58
2023-02-27T10:46:58.887Z,-0.49
2023-02-27T10:49:26.604Z,-0.43
2023-02-27T10:52:09.161Z,-0.48
2023-02-27T10:54:37.345Z,-0.25
2023-02-27T10:57:07.177Z,-0.20
2023-02-27T10:59:39.240Z,0.03
2023-02-27T11:02:21.014Z,0.26
2023-02-27T11:04:55.982Z,0.19
2023-02-27T11:07:27.869Z,-0.01
2023-02-27T11:10:02.535Z,0.01
2023-02-27T11:12:31.664Z,-0.04
2023-02-27T11:15:04.077Z,0.23
2023-02-27T11:17:32.981Z,0.62
2023-02-27T11:20:01.387Z,0.81
2023-02-27T11:22:29.908Z,0.99
2023-02-27T11:25:15.789Z,1.13
2023-02-27T11:27:42.890Z,1.47
2023-02-27T11:30:27.011Z,1.67
2023-02-27T11:32:56.911Z,1.37
2023-02-27T11:35:31.740Z,1.40
2023-02-27T11:38:03.642Z,1.51
2023-02-27T11:40:32.193Z,1.34
2023-02-27T11:43:05.224Z,1.51
2023-02-27T11:46:14.694Z,1.56
2023-02-27T11:48:24.298Z,1.47
2023-02-27T11:50:52.162Z,1.31
2023-02-27T11:53:31.328Z,1.07
2023-02-27T11:56:01.089Z,0.72
2023-02-27T11:58:30.887Z,0.56
2023-02-27T12:01:06.612Z,0.32
2023-02-27T12:03:52.626Z,0.12
2023-02-27T12:06:21.809Z,0.01
2023-02-27T12:08:48.868Z,-0.01
2023-02-27T12:11:28.227Z,-0.10
2023-02-27T12:14:02.522Z,-0.05
2023-02-27T12:16:42.462Z,0.05
2023-02-27T12:19:12.806Z,0.14
2023-02-27T12:21:41.877Z,0.28
2023-02-27T12:24:19.128Z,0.31
2023-02-27T12:26:47.749Z,0.18
2023-02-27T12:29:26.070Z,0.12
2023-02-27T12:31:56.944Z,-0.04
2023-02-27T12:34:30.614Z,-0.13
2023-02-27T12:37:03.661Z,-0.04
2023-02-27T12:39:32.221Z,-0.12
2023-02-27T12:42:17.696Z,-0.22
2023-02-27T12:44:45.007Z,-0.31
2023-02-27T12:47:18.115Z,-0.32
2023-02-27T12:49:53.231Z,-0.38
2023-02-27T12:52:39.283Z,-0.36
2023-02-27T12:55:10.347Z,-0.30
2023-02-27T12:57:57.692Z,-0.29
2023-02-27T13:00:44.553Z,-0.28
2023-02-27T13:03:22.364Z,-0.21
2023-02-27T13:06:17.506Z,-0.32
2023-02-27T13:09:08.959Z,-0.24
2023-02-27T13:11:59.481Z,-0.05
2023-02-27T13:14:29.704Z,0.27
2023-02-27T13:17:04.311Z,0.35
2023-02-27T13:19:39.727Z,0.49
2023-02-27T13:22:09.862Z,0.37
2023-02-27T13:24:39.170Z,0.78
2023-02-27T13:27:15.409Z,1.00
2023-02-27T13:29:47.751Z,1.08
2023-02-27T13:32:18.111Z,1.17
2023-02-27T13:34:52.573Z,1.22
2023-02-27T13:37:19.728Z,1.21
2023-02-27T13:39:53.767Z,1.24
2023-02-27T13:42:27.273Z,1.06
2023-02-27T13:44:58.397Z,0.99
2023-02-27T13:47:47.347Z,1.07
2023-02-27T13:50:17.557Z,0.91
2023-02-27T13:52:45.628Z,0.89
2023-02-27T13:55:24.755Z,0.84
2023-02-27T13:57:53.551Z,0.82
2023-02-27T14:00:23.101Z,0.71
2023-02-27T14:02:59.823Z,0.57
2023-02-27T14:05:33.404Z,0.31
2023-02-27T14:08:00.529Z,0.34
2023-02-27T14:10:28.908Z,0.37
2023-02-27T14:12:57.750Z,0.42
2023-02-27T14:15:24.878Z,0.54
2023-02-27T14:18:09.623Z,0.66
2023-02-27T14:20:41.473Z,0.83
2023-02-27T14:23:17.703Z,0.80
2023-02-27T14:25:52.009Z,0.87
2023-02-27T14:28:30.460Z,0.72
2023-02-27T14:31:03.145Z,0.75
2023-02-27T14:33:40.623Z,0.87
2023-02-27T14:36:09.634Z,0.70
2023-02-27T14:38:38.662Z,0.57
2023-02-27T14:41:15.041Z,0.36
2023-02-27T14:43:55.077Z,0.26
2023-02-27T14:46:24.755Z,0.22
2023-02-27T14:48:56.103Z,0.22
2023-02-27T14:51:24.335Z,0.20
2023-02-27T14:53:59.459Z,0.31
2023-02-27T14:56:27.031Z,0.31
2023-02-27T14:59:04.376Z,0.32
2023-02-27T15:01:35.366Z,0.34
2023-02-27T15:04:04.328Z,0.38
2023-02-27T15:10:41.160Z,0.13
2023-02-27T15:13:19.842Z,0.13
2023-02-27T15:15:48.797Z,0.09
2023-02-27T15:18:16.186Z,0.10
2023-02-27T15:20:43.286Z,-0.12
2023-02-27T15:23:26.559Z,-0.17
2023-02-27T15:25:57.644Z,-0.28
2023-02-27T15:28:34.956Z,-0.39
2023-02-27T15:31:02.891Z,-0.54
2023-02-27T15:33:35.119Z,-0.52
2023-02-27T15:36:02.806Z,-0.56
2023-02-27T15:38:31.637Z,-0.75
2023-02-27T15:41:13.791Z,-0.78
2023-02-27T15:43:43.303Z,-0.75
2023-02-27T15:46:10.692Z,-0.86
2023-02-27T15:48:37.886Z,-0.96
2023-02-27T15:51:05.289Z,-1.07
2023-02-27T15:53:34.206Z,-1.12
2023-02-27T15:56:06.190Z,-1.21
2023-02-27T15:58:35.662Z,-1.20
2023-02-27T16:01:14.374Z,-1.31
2023-02-27T16:03:46.494Z,-1.30
2023-02-27T16:06:19.596Z,-1.27
2023-02-27T16:08:51.122Z,-1.31
2023-02-27T16:11:22.832Z,-1.26
2023-02-27T16:13:50.000Z,-1.32
2023-02-27T16:16:20.263Z,-1.31
2023-02-27T16:18:48.957Z,-1.27
2023-02-27T16:21:18.358Z,-1.24
2023-02-27T16:23:45.863Z,-1.25
2023-02-27T16:26:33.414Z,-1.22
2023-02-27T16:29:03.841Z,-1.23
2023-02-27T16:31:39.049Z,-1.26
2023-02-27T16:34:15.408Z,-1.26
2023-02-27T16:36:43.275Z,-1.27
2023-02-27T16:39:13.033Z,-1.21
2023-02-27T16:41:40.179Z,-1.08
2023-02-27T16:44:07.355Z,-0.98
2023-02-27T16:46:34.851Z,-0.92
2023-02-27T16:49:14.252Z,-0.80
2023-02-27T16:51:46.192Z,-0.85
2023-02-27T16:54:14.206Z,-0.90
2023-02-27T16:56:42.080Z,-0.90
2023-02-27T16:59:24.120Z,-0.95
2023-02-27T17:01:51.386Z,-0.97
2023-02-27T17:04:25.590Z,-0.89
2023-02-27T17:06:53.970Z,-0.92
2023-02-27T17:09:21.635Z,-0.98
2023-02-27T17:11:49.268Z,-1.09
2023-02-27T17:14:17.152Z,-1.11
2023-02-27T17:16:44.788Z,-1.13
2023-02-27T17:19:12.080Z,-1.09
2023-02-27T17:21:39.245Z,-1.14
2023-02-27T17:24:06.495Z,-1.24
2023-02-27T17:26:34.463Z,-1.22
2023-02-27T17:29:02.781Z,-1.31
2023-02-27T17:31:30.355Z,-1.33
2023-02-27T17:33:57.660Z,-1.30
2023-02-27T17:36:25.066Z,-1.25
2023-02-27T17:39:00.771Z,-1.28
2023-02-27T17:41:28.958Z,-1.28
2023-02-27T17:43:56.883Z,-1.27
2023-02-27T17:46:25.477Z,-1.25
2023-02-27T17:48:54.177Z,-1.38
2023-02-27T17:51:22.038Z,-1.44
2023-02-27T17:53:49.271Z,-1.47
2023-02-27T17:56:16.536Z,-1.44
2023-02-27T17:58:45.630Z,-1.48
2023-02-27T18:01:14.397Z,-1.42
2023-02-27T18:03:41.741Z,-1.35
2023-02-27T18:06:08.867Z,-1.31
2023-02-27T18:08:36.528Z,-1.34
2023-02-27T18:11:04.709Z,-1.40
2023-02-27T18:13:32.075Z,-1.40
2023-02-27T18:15:59.186Z,-1.36
2023-02-27T18:18:26.257Z,-1.39
2023-02-27T18:21:01.238Z,-1.43
2023-02-27T18:23:28.958Z,-1.42
2023-02-27T18:25:56.989Z,-1.51
2023-02-27T18:28:24.508Z,-1.48
2023-02-27T18:30:52.138Z,-1.47
2023-02-27T18:33:29.130Z,-1.45
2023-02-27T18:35:57.738Z,-1.44
2023-02-27T18:38:24.819Z,-1.48
2023-02-27T18:40:52.147Z,-1.40
2023-02-27T18:43:19.758Z,-1.49
2023-02-27T18:45:50.538Z,-1.41
2023-02-27T18:48:20.949Z,-1.45
2023-02-27T18:50:48.390Z,-1.49
2023-02-27T18:53:15.544Z,-1.49
2023-02-27T18:55:42.896Z,-1.59
2023-02-27T18:58:10.150Z,-1.54
2023-02-27T19:00:37.866Z,-1.66
2023-02-27T19:03:05.626Z,-1.75
2023-02-27T19:05:32.915Z,-1.81
2023-02-27T19:09:02.288Z,-1.84
2023-02-27T19:11:33.889Z,-1.81
2023-02-27T19:14:05.455Z,-1.87
2023-02-27T19:16:33.985Z,-1.82
2023-02-27T19:19:03.157Z,-1.81
2023-02-27T19:21:31.536Z,-1.87
2023-02-27T19:23:58.876Z,-2.00
2023-02-27T19:26:26.729Z,-1.99
2023-02-27T19:28:55.191Z,-1.99
2023-02-27T19:31:23.751Z,-2.08
2023-02-27T19:33:51.466Z,-2.10
2023-02-27T19:36:21.032Z,-2.14
2023-02-27T19:38:48.928Z,-2.13
2023-02-27T19:41:17.567Z,-2.15
2023-02-27T19:43:44.902Z,-2.17
2023-02-27T19:46:13.700Z,-2.16
2023-02-27T19:48:41.330Z,-2.22
2023-02-27T19:51:09.687Z,-2.21
2023-02-27T19:53:38.288Z,-2.27
2023-02-27T19:56:26.837Z,-2.27
2023-02-27T19:58:54.583Z,-2.50
2023-02-27T20:01:21.692Z,-2.66
2023-02-27T20:03:48.859Z,-2.73
2023-02-27T20:06:17.598Z,-2.73
2023-02-27T20:08:44.881Z,-2.63
2023-02-27T20:11:13.626Z,-2.68
2023-02-27T20:13:41.021Z,-2.64
2023-02-27T20:16:08.873Z,-2.55
2023-02-27T20:18:36.561Z,-2.64
2023-02-27T20:21:05.930Z,-2.68
2023-02-27T20:23:34.301Z,-2.69
2023-02-27T20:26:01.914Z,-2.69
2023-02-27T20:28:29.114Z,-2.64
2023-02-27T20:30:56.385Z,-2.54
2023-02-27T20:33:24.372Z,-2.51
2023-02-27T20:35:51.990Z,-2.66
2023-02-27T20:38:21.438Z,-2.66
2023-02-27T20:40:48.941Z,-2.57
2023-02-27T20:43:16.051Z,-2.55
2023-02-27T20:45:43.117Z,-2.59
2023-02-27T20:48:10.210Z,-2.51
2023-02-27T20:50:38.395Z,-2.56
2023-02-27T20:53:06.311Z,-2.48
2023-02-27T20:55:36.162Z,-2.37
2023-02-27T20:58:04.145Z,-2.36
2023-02-27T21:00:31.286Z,-2.31
2023-02-27T21:03:01.135Z,-2.31
2023-02-27T21:05:28.703Z,-2.43
2023-02-27T21:07:55.889Z,-2.39
2023-02-27T21:10:23.780Z,-2.32
2023-02-27T21:12:51.589Z,-2.36
2023-02-27T21:15:19.103Z,-2.38
2023-02-27T21:17:46.479Z,-2.44
2023-02-27T21:20:13.909Z,-2.42
2023-02-27T21:22:41.616Z,-2.25
2023-02-27T21:25:08.808Z,-2.26
2023-02-27T21:27:35.974Z,-2.33
2023-02-27T21:30:03.620Z,-2.32
2023-02-27T21:32:30.760Z,-2.24
2023-02-27T21:34:57.930Z,-2.00
2023-02-27T21:37:25.952Z,-1.93
2023-02-27T21:39:55.536Z,-2.05
2023-02-27T21:42:23.011Z,-2.00
2023-02-27T21:44:50.095Z,-1.98
2023-02-27T21:47:19.571Z,-2.03
2023-02-27T21:49:46.658Z,-1.98
2023-02-27T21:52:13.856Z,-2.02
2023-02-27T21:54:41.471Z,-2.04
2023-02-27T21:57:10.246Z,-2.06
2023-02-27T21:59:37.563Z,-2.01
2023-02-27T22:02:05.742Z,-2.01
2023-02-27T22:04:32.767Z,-1.90
2023-02-27T22:06:59.907Z,-1.86
2023-02-27T22:09:27.366Z,-1.89
2023-02-27T22:11:54.572Z,-1.86
2023-02-27T22:14:21.663Z,-1.74
2023-02-27T22:16:48.930Z,-1.75
2023-02-27T22:19:20.048Z,-1.78
2023-02-27T22:21:47.676Z,-1.69
2023-02-27T22:24:22.912Z,-1.75
2023-02-27T22:31:08.961Z,-1.85
2023-02-27T22:33:36.867Z,-1.90
2023-02-27T22:36:12.141Z,-1.83
2023-02-27T22:38:39.320Z,-1.79
2023-02-27T22:41:11.152Z,-1.72
2023-02-27T22:43:39.828Z,-1.78
2023-02-27T22:46:07.421Z,-1.73
2023-02-27T22:48:35.129Z,-1.75
2023-02-27T22:51:04.485Z,-1.78
2023-02-27T22:53:33.167Z,-1.76
2023-02-27T22:56:00.225Z,-1.85
2023-02-27T22:58:27.621Z,-1.86
2023-02-27T23:00:54.826Z,-1.92
2023-02-27T23:03:21.919Z,-1.90
2023-02-27T23:05:49.097Z,-2.05
2023-02-27T23:08:16.761Z,-2.13
2023-02-27T23:10:44.013Z,-2.21
2023-02-27T23:13:11.176Z,-2.25
2023-02-27T23:15:39.062Z,-2.45
2023-02-27T23:18:07.158Z,-2.60
2023-02-27T23:20:36.285Z,-2.56
2023-02-27T23:23:05.455Z,-2.36
2023-02-27T23:25:33.844Z,-2.25
2023-02-27T23:28:01.372Z,-2.26
2023-02-27T23:30:28.831Z,-2.26
2023-02-27T23:32:57.310Z,-2.27
2023-02-27T23:35:24.873Z,-2.29
2023-02-27T23:37:52.731Z,-2.32
2023-02-27T23:40:20.584Z,-2.31
2023-02-27T23:42:48.052Z,-2.21
2023-02-27T23:45:24.433Z,-2.08
2023-02-27T23:47:53.195Z,-2.19
2023-02-27T23:50:21.398Z,-2.08
2023-02-27T23:52:49.457Z,-1.94
2023-02-27T23:55:17.623Z,-1.85
2023-02-27T23:57:45.098Z,-1.76
